Time;durP1;ratioP1;P1;durP2;ratioP2;P2;SDS_P1;SDS_P2;PMS_P1;PMS_P2;Temp;Humidity;BMP_temperature;BMP_pressure;BME280_temperature;BME280_humidity;BME280_pressure;Samples;Min_cycle;Max_cycle;Signal;HPM_P1;HPM_P2
2023/07/18 00:00:53;;;;;;;17.35;15.50;;;;;;;;;;5087300;28;20767;-67
2023/07/18 00:03:21;;;;;;;19.17;14.68;;;;;;;;;;5088529;28;20267;-66
2023/07/18 00:05:48;;;;;;;24.65;15.20;;;;;;;;;;5088075;28;20205;-67
2023/07/18 00:08:15;;;;;;;15.60;14.27;;;;;;;;;;5088642;28;20205;-66
2023/07/18 00:10:41;;;;;;;16.08;14.13;;;;;;;;;;5088548;28;20204;-67
2023/07/18 00:13:08;;;;;;;16.35;14.85;;;;;;;;;;5089159;28;20220;-67
2023/07/18 00:15:35;;;;;;;16.85;14.75;;;;;;;;;;5087545;28;20224;-66
2023/07/18 00:18:01;;;;;;;15.93;14.63;;;;;;;;;;5086911;28;20639;-66
2023/07/18 00:20:30;;;;;;;15.77;14.32;;;;;;;;;;5088403;28;20215;-67
2023/07/18 00:22:57;;;;;;;17.63;15.90;;;;;;;;;;5087304;28;20461;-66
2023/07/18 00:25:23;;;;;;;18.13;15.77;;;;;;;;;;5088183;28;20221;-67
2023/07/18 00:27:51;;;;;;;15.18;13.50;;;;;;;;;;5085799;28;20753;-67
2023/07/18 00:30:18;;;;;;;17.15;15.43;;;;;;;;;;5086629;28;20194;-68
2023/07/18 00:32:45;;;;;;;15.93;14.43;;;;;;;;;;5086954;28;20275;-68
2023/07/18 00:35:12;;;;;;;15.50;14.30;;;;;;;;;;5086618;28;20671;-67
2023/07/18 00:37:40;;;;;;;15.50;14.07;;;;;;;;;;5087198;28;20204;-67
2023/07/18 00:40:10;;;;;;;16.23;14.65;;;;;;;;;;5086391;28;20194;-68
2023/07/18 00:42:36;;;;;;;15.90;14.18;;;;;;;;;;5087148;28;20320;-66
2023/07/18 00:45:03;;;;;;;16.10;14.43;;;;;;;;;;5087020;28;20286;-67
2023/07/18 00:47:29;;;;;;;14.60;13.55;;;;;;;;;;5087868;28;20197;-66
2023/07/18 00:49:56;;;;;;;16.25;14.65;;;;;;;;;;5087460;28;20201;-66
2023/07/18 00:52:22;;;;;;;15.68;13.55;;;;;;;;;;5086536;28;20217;-67
2023/07/18 00:54:50;;;;;;;15.20;13.98;;;;;;;;;;5085644;28;20444;-67
2023/07/18 00:57:17;;;;;;;14.88;13.57;;;;;;;;;;5085819;28;20237;-67
2023/07/18 00:59:44;;;;;;;15.32;13.77;;;;;;;;;;5085881;28;20322;-65
2023/07/18 01:02:10;;;;;;;15.07;13.88;;;;;;;;;;5085850;28;20311;-67
2023/07/18 01:04:37;;;;;;;16.83;15.05;;;;;;;;;;5085349;28;20679;-66
2023/07/18 01:07:04;;;;;;;15.52;14.13;;;;;;;;;;5084762;28;20201;-67
2023/07/18 01:09:31;;;;;;;14.93;13.10;;;;;;;;;;5084490;28;20259;-65
2023/07/18 01:11:59;;;;;;;16.33;13.77;;;;;;;;;;5085492;28;20237;-66
2023/07/18 01:14:26;;;;;;;15.70;14.52;;;;;;;;;;5083943;28;20306;-65
2023/07/18 01:16:52;;;;;;;18.58;14.85;;;;;;;;;;5085184;28;20983;-66
2023/07/18 01:19:19;;;;;;;15.57;14.40;;;;;;;;;;5085133;28;20229;-67
2023/07/18 01:21:47;;;;;;;15.18;13.80;;;;;;;;;;5083293;28;22176;-67
2023/07/18 01:24:13;;;;;;;16.40;14.45;;;;;;;;;;5085966;28;20193;-66
2023/07/18 01:26:39;;;;;;;15.15;13.70;;;;;;;;;;5086612;28;20284;-66
2023/07/18 01:29:06;;;;;;;13.70;12.30;;;;;;;;;;5085754;28;20205;-67
2023/07/18 01:31:32;;;;;;;16.33;14.75;;;;;;;;;;5086304;28;20237;-67
2023/07/18 01:33:59;;;;;;;15.60;14.20;;;;;;;;;;5085962;28;20233;-66
2023/07/18 01:36:28;;;;;;;16.13;14.75;;;;;;;;;;5085780;28;20225;-65
2023/07/18 01:38:56;;;;;;;15.13;13.60;;;;;;;;;;5086797;28;20233;-66
2023/07/18 01:41:22;;;;;;;14.95;13.80;;;;;;;;;;5085271;28;20659;-66
2023/07/18 01:43:49;;;;;;;15.05;13.55;;;;;;;;;;5085574;28;20249;-65
2023/07/18 01:46:15;;;;;;;15.55;14.10;;;;;;;;;;5088067;28;20234;-67
2023/07/18 01:48:42;;;;;;;14.10;12.68;;;;;;;;;;5089886;28;20310;-65
2023/07/18 01:51:08;;;;;;;15.40;14.00;;;;;;;;;;5089352;28;20280;-66
2023/07/18 01:53:34;;;;;;;14.25;13.02;;;;;;;;;;5090364;28;20198;-68
2023/07/18 01:56:02;;;;;;;16.38;14.02;;;;;;;;;;5087009;28;20632;-67
2023/07/18 01:58:29;;;;;;;15.02;13.75;;;;;;;;;;5088108;28;20233;-67
2023/07/18 02:00:55;;;;;;;14.18;13.15;;;;;;;;;;5090452;28;20226;-67
2023/07/18 02:03:21;;;;;;;15.07;13.82;;;;;;;;;;5089857;28;20779;-67
2023/07/18 02:05:48;;;;;;;15.02;13.63;;;;;;;;;;5088810;28;20293;-66
2023/07/18 02:08:14;;;;;;;14.80;13.52;;;;;;;;;;5089550;28;20683;-65
2023/07/18 02:10:41;;;;;;;15.05;13.95;;;;;;;;;;5089680;28;20225;-66
2023/07/18 02:13:09;;;;;;;14.65;13.38;;;;;;;;;;5090372;28;20254;-66
2023/07/18 02:15:35;;;;;;;14.73;13.50;;;;;;;;;;5090505;28;20197;-67
2023/07/18 02:18:02;;;;;;;14.65;13.43;;;;;;;;;;5088937;28;20286;-66
2023/07/18 02:20:28;;;;;;;15.30;13.75;;;;;;;;;;5089511;28;20259;-66
2023/07/18 02:22:55;;;;;;;15.43;13.88;;;;;;;;;;5089561;28;20257;-66
2023/07/18 02:25:22;;;;;;;14.57;13.43;;;;;;;;;;5089525;28;20263;-67
2023/07/18 02:27:49;;;;;;;15.52;14.02;;;;;;;;;;5089241;28;20285;-66
2023/07/18 02:30:16;;;;;;;14.68;13.38;;;;;;;;;;5090478;28;20228;-66
2023/07/18 02:32:43;;;;;;;15.52;13.90;;;;;;;;;;5090426;28;20197;-66
2023/07/18 02:35:10;;;;;;;14.60;13.50;;;;;;;;;;5090149;28;20229;-67
2023/07/18 02:37:37;;;;;;;14.45;13.07;;;;;;;;;;5090215;28;20197;-69
2023/07/18 02:40:08;;;;;;;15.18;13.73;;;;;;;;;;5089352;28;20715;-66
2023/07/18 02:42:35;;;;;;;16.27;14.60;;;;;;;;;;5089228;28;20234;-66
2023/07/18 02:45:01;;;;;;;14.20;12.85;;;;;;;;;;5090065;28;20205;-66
2023/07/18 02:47:30;;;;;;;17.88;14.70;;;;;;;;;;5089808;28;20198;-66
2023/07/18 02:49:56;;;;;;;14.88;13.63;;;;;;;;;;5089542;28;20251;-65
2023/07/18 02:52:22;;;;;;;15.07;13.70;;;;;;;;;;5089463;28;20237;-65
2023/07/18 02:54:50;;;;;;;15.88;14.48;;;;;;;;;;5088225;28;20233;-66
2023/07/18 02:57:16;;;;;;;21.92;13.43;;;;;;;;;;5089945;28;20213;-65
2023/07/18 02:59:43;;;;;;;16.35;14.80;;;;;;;;;;5088183;28;20205;-65
2023/07/18 03:02:09;;;;;;;15.57;13.30;;;;;;;;;;5090273;28;20270;-66
2023/07/18 03:04:37;;;;;;;17.80;14.38;;;;;;;;;;5089806;28;20234;-66
2023/07/18 03:07:03;;;;;;;18.65;14.73;;;;;;;;;;5089606;28;20310;-66
2023/07/18 03:09:34;;;;;;;17.25;14.18;;;;;;;;;;5088672;28;20756;-66
2023/07/18 03:12:00;;;;;;;16.65;14.90;;;;;;;;;;5087867;28;20197;-66
2023/07/18 03:14:27;;;;;;;16.23;14.45;;;;;;;;;;5087349;28;20198;-66
2023/07/18 03:16:53;;;;;;;16.75;14.98;;;;;;;;;;5087406;28;20217;-67
2023/07/18 03:19:19;;;;;;;15.80;13.98;;;;;;;;;;5087185;28;20290;-66
2023/07/18 03:21:47;;;;;;;14.57;13.00;;;;;;;;;;5086765;28;20244;-67
2023/07/18 03:24:14;;;;;;;15.15;13.70;;;;;;;;;;5086561;28;20652;-66
2023/07/18 03:26:40;;;;;;;15.60;14.13;;;;;;;;;;5088692;28;20702;-66
2023/07/18 03:29:06;;;;;;;17.20;14.35;;;;;;;;;;5088535;28;20233;-66
2023/07/18 03:31:33;;;;;;;16.50;14.82;;;;;;;;;;5089092;28;21495;-67
2023/07/18 03:34:00;;;;;;;15.65;13.98;;;;;;;;;;5088826;28;20296;-67
2023/07/18 03:36:27;;;;;;;15.88;14.38;;;;;;;;;;5089055;28;20616;-67
2023/07/18 03:38:54;;;;;;;17.23;13.02;;;;;;;;;;5089416;28;20225;-66
2023/07/18 03:41:21;;;;;;;15.68;13.20;;;;;;;;;;5089555;28;20240;-67
2023/07/18 03:43:47;;;;;;;15.05;13.65;;;;;;;;;;5089573;28;20316;-67
2023/07/18 03:46:14;;;;;;;13.50;12.20;;;;;;;;;;5089103;28;20225;-66
2023/07/18 03:48:40;;;;;;;13.88;12.65;;;;;;;;;;5088364;28;20687;-67
2023/07/18 03:51:07;;;;;;;14.07;12.77;;;;;;;;;;5089130;28;20283;-66
2023/07/18 03:53:33;;;;;;;13.23;11.88;;;;;;;;;;5087921;28;20320;-66
2023/07/18 03:56:04;;;;;;;13.50;12.25;;;;;;;;;;5088501;28;20288;-66
2023/07/18 03:58:31;;;;;;;13.68;12.45;;;;;;;;;;5088546;28;20233;-66
2023/07/18 04:00:57;;;;;;;19.70;17.80;;;;;;;;;;5088480;28;20699;-67
2023/07/18 04:03:24;;;;;;;22.85;20.65;;;;;;;;;;5088399;28;20385;-66
2023/07/18 04:05:51;;;;;;;17.65;14.98;;;;;;;;;;5087983;28;20305;-67
2023/07/18 04:08:18;;;;;;;16.17;14.68;;;;;;;;;;5086407;28;20612;-67
2023/07/18 04:10:44;;;;;;;20.20;18.27;;;;;;;;;;5087576;28;20204;-67
2023/07/18 04:13:12;;;;;;;17.02;15.27;;;;;;;;;;5088108;28;20236;-67
2023/07/18 04:15:38;;;;;;;15.05;13.63;;;;;;;;;;5087497;28;20206;-66
2023/07/18 04:18:05;;;;;;;16.35;13.90;;;;;;;;;;5088230;28;20237;-66
2023/07/18 04:20:31;;;;;;;15.18;13.80;;;;;;;;;;5088148;28;20675;-67
2023/07/18 04:22:58;;;;;;;15.65;13.98;;;;;;;;;;5087582;28;20315;-67
2023/07/18 04:25:25;;;;;;;15.40;13.15;;;;;;;;;;5088364;28;20201;-67
2023/07/18 04:27:51;;;;;;;15.27;13.70;;;;;;;;;;5088142;28;20233;-67
2023/07/18 04:30:19;;;;;;;16.27;13.85;;;;;;;;;;5088906;28;20229;-67
2023/07/18 04:32:46;;;;;;;21.17;13.80;;;;;;;;;;5087652;28;20656;-67
2023/07/18 04:35:13;;;;;;;17.10;15.32;;;;;;;;;;5088015;28;20288;-69
2023/07/18 04:37:39;;;;;;;21.20;19.05;;;;;;;;;;5088139;28;20248;-67
2023/07/18 04:40:08;;;;;;;16.55;14.27;;;;;;;;;;5087778;28;20286;-66
2023/07/18 04:42:34;;;;;;;17.60;14.93;;;;;;;;;;5087171;28;20638;-66
2023/07/18 04:45:01;;;;;;;24.02;21.45;;;;;;;;;;5086280;28;20307;-66
2023/07/18 04:47:29;;;;;;;31.17;27.63;;;;;;;;;;5087118;28;20229;-67
2023/07/18 04:49:56;;;;;;;18.27;14.60;;;;;;;;;;5088102;28;20225;-67
2023/07/18 04:52:23;;;;;;;23.42;19.42;;;;;;;;;;5087198;28;20795;-66
2023/07/18 04:54:49;;;;;;;35.83;31.95;;;;;;;;;;5085149;28;20578;-66
2023/07/18 04:57:17;;;;;;;23.45;16.95;;;;;;;;;;5085768;28;20662;-67
2023/07/18 04:59:44;;;;;;;23.83;19.15;;;;;;;;;;5085768;28;20615;-67
2023/07/18 05:02:10;;;;;;;23.02;17.25;;;;;;;;;;5085785;28;20232;-66
2023/07/18 05:04:38;;;;;;;20.40;16.17;;;;;;;;;;5086086;28;20252;-68
2023/07/18 05:07:04;;;;;;;17.00;15.38;;;;;;;;;;5086200;28;20274;-68
2023/07/18 05:09:31;;;;;;;17.50;15.85;;;;;;;;;;5086825;28;20197;-67
2023/07/18 05:11:57;;;;;;;17.02;15.60;;;;;;;;;;5085941;28;20197;-66
2023/07/18 05:14:24;;;;;;;18.13;15.00;;;;;;;;;;5086868;28;20285;-66
2023/07/18 05:16:50;;;;;;;16.10;14.25;;;;;;;;;;5085595;28;20197;-67
2023/07/18 05:19:17;;;;;;;16.45;14.95;;;;;;;;;;5086838;28;20229;-67
2023/07/18 05:21:45;;;;;;;20.83;15.15;;;;;;;;;;5088130;28;20209;-66
2023/07/18 05:24:11;;;;;;;16.45;14.57;;;;;;;;;;5090554;28;20222;-67
2023/07/18 05:26:38;;;;;;;16.77;15.20;;;;;;;;;;5091769;28;20233;-67
2023/07/18 05:29:04;;;;;;;15.52;14.00;;;;;;;;;;5092352;28;20281;-67
2023/07/18 05:31:30;;;;;;;16.52;14.15;;;;;;;;;;5091257;28;20227;-67
2023/07/18 05:33:57;;;;;;;15.68;14.25;;;;;;;;;;5090648;28;20740;-67
2023/07/18 05:36:23;;;;;;;14.65;13.45;;;;;;;;;;5091322;28;20266;-67
2023/07/18 05:38:51;;;;;;;14.68;13.60;;;;;;;;;;5089332;28;20749;-67
2023/07/18 05:41:18;;;;;;;16.23;14.35;;;;;;;;;;5091122;28;20739;-67
2023/07/18 05:43:44;;;;;;;16.20;14.02;;;;;;;;;;5090995;28;20275;-67
2023/07/18 05:46:11;;;;;;;18.15;14.82;;;;;;;;;;5091338;28;20224;-66
2023/07/18 05:48:37;;;;;;;15.30;13.75;;;;;;;;;;5090341;28;20237;-67
2023/07/18 05:51:04;;;;;;;15.82;13.77;;;;;;;;;;5091408;28;20286;-67
2023/07/18 05:53:30;;;;;;;14.32;13.15;;;;;;;;;;5090561;28;20255;-66
2023/07/18 05:55:58;;;;;;;19.00;14.60;;;;;;;;;;5091290;28;20209;-67
2023/07/18 05:58:24;;;;;;;15.65;13.93;;;;;;;;;;5090642;28;20650;-66
2023/07/18 06:00:51;;;;;;;16.60;15.07;;;;;;;;;;5089990;28;20251;-68
2023/07/18 06:03:18;;;;;;;18.38;14.68;;;;;;;;;;5090368;28;22146;-67
2023/07/18 06:05:45;;;;;;;14.90;13.57;;;;;;;;;;5090396;28;20205;-67
2023/07/18 06:08:12;;;;;;;14.52;13.25;;;;;;;;;;5091276;28;20205;-69
2023/07/18 06:10:38;;;;;;;14.88;13.32;;;;;;;;;;5091464;28;20228;-67
2023/07/18 06:13:06;;;;;;;13.57;12.32;;;;;;;;;;5091047;28;20205;-68
2023/07/18 06:15:32;;;;;;;13.82;12.55;;;;;;;;;;5090588;28;20198;-68
2023/07/18 06:17:59;;;;;;;15.27;13.82;;;;;;;40.58;nan;95318.41;5089697;28;20639;-67
2023/07/18 06:20:26;;;;;;;13.40;12.38;;;;;;;;;;5090889;28;20285;-67
2023/07/18 06:22:52;;;;;;;13.10;12.07;;;;;;;;;;5089127;28;20237;-66
2023/07/18 06:25:18;;;;;;;13.43;12.23;;;;;;;;;;5090554;28;20249;-67
2023/07/18 06:27:45;;;;;;;14.82;12.35;;;;;;;;;;5090482;28;20304;-68
2023/07/18 06:30:13;;;;;;;13.45;12.25;;;;;;;47.24;nan;95303.44;5090403;28;20290;-68
2023/07/18 06:32:40;;;;;;;14.95;11.70;;;;;;;47.86;nan;95303.94;5089753;28;20259;-69
2023/07/18 06:35:10;;;;;;;13.38;11.55;;;;;;;48.27;nan;95305.25;5089185;28;20278;-69
2023/07/18 06:37:37;;;;;;;16.25;12.65;;;;;;;47.90;nan;95299.59;5089921;28;20213;-67
2023/07/18 06:40:04;;;;;;;14.40;12.85;;;;;;;48.28;nan;95312.25;5089768;28;20200;-68
2023/07/18 06:42:31;;;;;;;19.08;12.68;;;;;;;48.70;nan;95302.75;5090176;28;20288;-67
2023/07/18 06:44:57;;;;;;;14.75;13.20;;;;;;;49.43;nan;95304.38;5089799;28;20256;-67
2023/07/18 06:47:26;;;;;;;15.70;12.77;;;;;;;49.89;nan;95299.16;5090154;28;20298;-68
2023/07/18 06:49:52;;;;;;;15.05;13.07;;;;;;;50.17;nan;95302.81;5088969;28;20280;-68
2023/07/18 06:52:19;;;;;;;14.30;12.95;;;;;;;50.09;nan;95296.16;5089348;28;20225;-69
2023/07/18 06:54:46;;;;;;;13.02;12.18;;;;;;;50.24;nan;95304.03;5090114;28;20278;-68
2023/07/18 06:57:15;;;;;;;13.70;12.32;;;;;;;50.12;nan;95300.97;5090147;28;20205;-67
2023/07/18 06:59:42;;;;;;;14.25;12.40;;;;;;;50.40;nan;95296.47;5089187;28;20209;-68
2023/07/18 07:02:10;;;;;;;15.07;13.32;;;;;;;50.74;nan;95290.75;5089829;28;20201;-68
2023/07/18 07:04:39;;;;;;;13.73;12.63;;;;;;;50.38;nan;95287.88;5090021;28;20849;-67
2023/07/18 07:07:07;;;;;;;14.00;12.85;;;;;;;50.78;nan;95297.16;5089192;28;20197;-68
2023/07/18 07:09:34;;;;;;;15.70;14.40;;;;;;;51.10;nan;95290.09;5088896;28;20763;-67
2023/07/18 07:12:01;;;;;;;15.20;14.00;;;;;;;51.23;nan;95297.41;5089409;28;20482;-68
2023/07/18 07:14:27;;;;;;;16.17;14.82;;;;;;;51.28;nan;95289.19;5088658;28;20725;-68
2023/07/18 07:16:54;;;;;;;18.58;16.92;;;;;;;51.16;nan;95291.59;5088694;28;20738;-68
2023/07/18 07:19:21;;;;;;;17.08;15.73;;;;;;;50.97;nan;95294.41;5089363;28;20228;-68
2023/07/18 07:21:49;;;;;;;17.48;15.73;;;;;;;51.03;nan;95294.00;5089355;28;20694;-67
2023/07/18 07:24:15;;;;;;;15.55;14.23;;;;;;;51.15;nan;95289.97;5089003;28;20221;-67
2023/07/18 07:26:42;;;;;;;19.27;14.80;;;;;;;51.36;nan;95297.41;5088806;28;20252;-68
2023/07/18 07:29:10;;;;;;;14.88;13.80;;;;;;;51.56;nan;95288.03;5088460;28;20201;-68
2023/07/18 07:31:37;;;;;;;14.70;13.25;;;;;;;51.44;nan;95287.78;5089028;28;20258;-67
2023/07/18 07:34:04;;;;;;;15.80;13.68;;;;;;;51.84;nan;95288.78;5088178;28;21099;-68
2023/07/18 07:36:32;;;;;;;16.05;13.63;;;;;;;51.11;nan;95294.41;5088610;28;20323;-69
2023/07/18 07:39:00;;;;;;;14.75;13.43;;;;;;;50.22;nan;95290.00;5088478;28;20709;-68
2023/07/18 07:41:27;;;;;;;14.63;13.43;;;;;;;48.70;nan;95281.97;5088421;28;20325;-68
2023/07/18 07:43:54;;;;;;;16.60;14.15;;;;;;;48.16;nan;95282.19;5088343;28;20257;-68
2023/07/18 07:46:20;;;;;;;14.05;12.75;;;;;;;47.31;nan;95281.56;5088494;28;20687;-70
2023/07/18 07:48:47;;;;;;;14.38;13.27;;;;;;;47.08;nan;95283.03;5088916;28;20290;-69
2023/07/18 07:51:15;;;;;;;15.70;13.80;;;;;;;47.52;nan;95272.34;5088326;28;20201;-70
2023/07/18 07:53:43;;;;;;;14.95;13.57;;;;;;;47.61;nan;95273.38;5087420;28;20203;-70
2023/07/18 07:56:11;;;;;;;14.68;13.48;;;;;;;47.87;nan;95276.72;5088086;28;20581;-69
2023/07/18 07:58:37;;;;;;;14.15;13.15;;;;;;;47.33;nan;95284.78;5088636;28;20265;-70
2023/07/18 08:01:04;;;;;;;14.30;12.43;;;;;;;46.27;nan;95294.72;5088701;28;20193;-71
2023/07/18 08:03:31;;;;;;;14.65;13.40;;;;;;;46.93;nan;95280.38;5088929;28;20224;-70
2023/07/18 08:05:58;;;;;;;13.57;12.40;;;;;;;47.80;nan;95278.13;5088494;28;20252;-70
2023/07/18 08:08:25;;;;;;;14.05;12.68;;;;;;;46.94;nan;95282.78;5088814;28;20270;-70
2023/07/18 08:10:52;;;;;;;12.45;11.43;;;;;;;45.99;nan;95281.81;5088047;28;20201;-70
2023/07/18 08:13:20;;;;;;;13.98;12.48;;;;;;;45.99;nan;95281.81;5088370;28;20217;-70
2023/07/18 08:15:46;;;;;;;13.25;12.15;;;;;;;46.86;nan;95280.66;5087348;28;20310;-70
2023/07/18 08:18:13;;;;;;;13.02;11.90;;;;;;;48.01;nan;95279.59;5088486;28;20715;-71
2023/07/18 08:20:40;;;;;;;13.38;12.57;;;;;;;48.30;nan;95272.34;5088733;28;20223;-70
2023/07/18 08:23:07;;;;;;;13.70;11.82;;;;;;;48.67;nan;95276.34;5088419;28;20258;-70
2023/07/18 08:25:34;;;;;;;12.73;11.48;;;;;;;49.46;nan;95288.41;5087887;28;20253;-69
2023/07/18 08:28:00;;;;;;;13.65;12.38;;;;;;;49.84;nan;95272.19;5088881;28;20289;-70
2023/07/18 08:30:29;;;;;;;12.82;12.02;;;;;;;49.99;nan;95274.72;5087074;28;20232;-69
2023/07/18 08:32:55;;;;;;;13.88;12.18;;;;;;;50.45;nan;95269.34;5088411;28;20232;-70
2023/07/18 08:35:22;;;;;;;13.43;12.10;;;;;;;50.85;nan;95277.81;5088568;28;20244;-70
2023/07/18 08:37:49;;;;;;;14.35;11.65;;;;;;;51.17;nan;95276.94;5087825;28;20201;-70
2023/07/18 08:40:16;;;;;;;13.75;12.57;;;;;;;51.79;nan;95267.22;5087693;28;20237;-70
2023/07/18 08:42:43;;;;;;;12.98;12.00;;;;;;;51.26;nan;95264.28;5087459;28;20250;-69
2023/07/18 08:45:13;;;;;;;12.27;11.43;;;;;;;51.42;nan;95279.16;5087457;28;20301;-71
2023/07/18 08:47:42;;;;;;;15.27;11.45;;;;;;;51.63;nan;95269.47;5087783;28;20720;-70
2023/07/18 08:50:11;;;;;;;12.77;11.82;;;;;;;51.93;nan;95267.16;5087605;28;20224;-70
2023/07/18 08:52:38;;;;;;;253.52;229.23;;;;;;;51.67;nan;95280.50;5085915;28;20248;-68
2023/07/18 08:55:05;;;;;;;129.18;116.50;;;;;;;50.85;nan;95265.09;5086120;28;20587;-69
2023/07/18 08:57:32;;;;;;;18.42;16.83;;;;;;;50.49;nan;95267.63;5087597;28;20254;-70
2023/07/18 09:00:01;;;;;;;15.43;13.75;;;;;;;50.70;nan;95268.91;5090182;28;20234;-70
2023/07/18 09:02:29;;;;;;;24.40;17.23;;;;;;;50.59;nan;95261.28;5088982;28;20624;-70
2023/07/18 09:04:57;;;;;;;20.10;14.38;;;;;;;50.06;nan;95264.31;5089936;28;20231;-70
2023/07/18 09:07:27;;;;;;;22.27;13.32;;;;;;;50.25;nan;95267.78;5089980;28;20283;-70
2023/07/18 09:09:53;;;;;;;14.60;11.93;;;;;;;50.45;nan;95265.84;5090065;28;20250;-71
2023/07/18 09:12:20;;;;;;;12.73;11.93;;;;;;;49.37;nan;95263.94;5091859;28;20193;-71
2023/07/18 09:14:47;;;;;;;13.68;12.38;;;;;;;48.33;nan;95257.50;5091849;28;20229;-71
2023/07/18 09:17:13;;;;;;;14.77;13.40;;;;;;;46.52;nan;95258.16;5091349;28;20342;-70
2023/07/18 09:19:41;;;;;;;14.50;13.13;;;;;;;44.52;nan;95273.16;5092284;28;20221;-70
2023/07/18 09:22:10;;;;;;;14.57;13.35;;;;;;;45.03;nan;95258.97;5091562;28;20236;-71
2023/07/18 09:24:37;;;;;;;14.10;13.10;;;;;;;46.13;nan;95261.38;5092043;28;20248;-70
2023/07/18 09:27:05;;;;;;;13.13;12.23;;;;;;;46.90;nan;95254.81;5091483;28;20205;-70
2023/07/18 09:29:32;;;;;;;14.18;12.77;;;;;;;47.04;nan;95250.47;5092391;28;20233;-70
2023/07/18 09:31:59;;;;;;;16.20;12.60;;;;;;;46.49;nan;95258.69;5090866;28;20225;-71
2023/07/18 09:34:27;;;;;;;14.43;13.25;;;;;;;45.81;nan;95263.47;5091708;28;20247;-69
2023/07/18 09:36:59;;;;;;;14.98;13.68;;;;;;;45.25;nan;95255.31;5091040;28;20197;-72
2023/07/18 09:39:29;;;;;;;14.75;13.13;;;;;;;44.57;nan;95254.38;5090410;28;20269;-69
2023/07/18 09:41:56;;;;;;;18.58;13.13;;;;;;;;;;5091066;28;20194;-71
2023/07/18 09:44:23;;;;;;;15.13;13.13;;;;;;;43.10;nan;95257.28;5091404;28;20204;-70
2023/07/18 09:46:50;;;;;;;13.88;12.55;;;;;;;42.27;nan;95252.09;5091424;28;20229;-68
2023/07/18 09:49:18;;;;;;;19.77;14.15;;;;;;;41.38;nan;95251.88;5091514;28;20209;-69
2023/07/18 09:51:51;;;;;;;13.57;12.65;;;;;;;40.67;nan;95243.22;5090359;28;20229;-69
2023/07/18 09:54:20;;;;;;;15.65;12.82;;;;;;;;;;5090588;28;20297;-69
2023/07/18 09:56:51;;;;;;;16.58;14.55;;;;;;;38.84;nan;95232.44;5090493;28;20240;-70
2023/07/18 09:59:21;;;;;;;15.63;13.82;;;;;;;37.75;nan;95244.44;5091485;28;20237;-70
2023/07/18 10:01:48;;;;;;;14.57;13.20;;;;;;;37.38;nan;95232.78;5090564;28;20262;-70
2023/07/18 10:04:17;;;;;;;19.23;13.80;;;;;;;36.82;nan;95234.50;5089959;28;20590;-69
2023/07/18 10:06:44;;;;;;;19.50;14.30;;;;;;;36.94;nan;95240.75;5090200;28;20210;-69
2023/07/18 10:09:11;;;;;;;15.95;14.25;;;;;;;;;;5090325;28;20736;-69
2023/07/18 10:12:10;;;;;;;13.48;12.23;;;;;;;36.21;nan;95235.56;5090695;28;20194;-70
2023/07/18 10:14:50;;;;;;;12.30;11.05;;;;;;;;;;5090145;28;20278;-69
2023/07/18 10:17:26;;;;;;;13.32;11.90;;;;;;;35.12;nan;95246.41;5089958;28;20197;-69
2023/07/18 10:19:52;;;;;;;18.95;13.55;;;;;;;;;;5090358;28;20254;-69
2023/07/18 10:22:25;;;;;;;19.60;13.38;;;;;;;34.93;nan;95241.84;5091285;28;20632;-69
2023/07/18 10:24:52;;;;;;;18.75;13.43;;;;;;;35.05;nan;95252.66;5090769;28;20249;-69
2023/07/18 10:27:24;;;;;;;28.63;13.57;;;;;;;35.09;nan;95241.50;5090332;28;20233;-70
2023/07/18 10:30:03;;;;;;;18.90;12.43;;;;;;;;;;5090500;28;20205;-69
2023/07/18 10:32:31;;;;;;;22.33;12.98;;;;;;;35.58;nan;95243.09;5089042;28;20671;-68
2023/07/18 10:34:57;;;;;;;15.35;10.65;;;;;;;35.77;nan;95233.56;5090188;28;20202;-70
2023/07/18 10:37:26;;;;;;;12.15;9.18;;;;;;;35.77;nan;95242.31;5089791;28;20225;-69
2023/07/18 10:39:53;;;;;;;17.60;9.75;;;;;;;;;;5089938;28;20720;-70
2023/07/18 10:42:24;;;;;;;11.23;8.45;;;;;;;35.70;nan;95232.69;5089994;28;20257;-69
2023/07/18 10:44:55;;;;;;;11.95;7.72;;;;;;;35.28;nan;95233.84;5089862;28;20232;-70
2023/07/18 10:47:21;;;;;;;12.38;8.43;;;;;;;;;;5090328;28;20255;-69
2023/07/18 10:49:48;;;;;;;17.88;9.02;;;;;;;;;;5090870;28;20201;-69
2023/07/18 10:52:15;;;;;;;11.88;7.47;;;;;;;34.73;nan;95235.63;5089539;28;20255;-69
2023/07/18 10:54:43;;;;;;;7.30;5.93;;;;;;;;;;5088475;28;20306;-69
2023/07/18 10:57:10;;;;;;;17.27;7.38;;;;;;;;;;5087958;28;20229;-70
2023/07/18 10:59:38;;;;;;;14.65;7.65;;;;;;;;;;5088452;28;20224;-70
2023/07/18 11:02:04;;;;;;;11.38;7.22;;;;;;;;;;5088300;28;20241;-69
2023/07/18 11:04:31;;;;;;;10.38;6.82;;;;;;;;;;5087703;28;20201;-69
2023/07/18 11:06:59;;;;;;;10.23;6.25;;;;;;;;;;5087743;28;20657;-70
2023/07/18 11:09:26;;;;;;;10.35;5.50;;;;;;;34.02;nan;95248.97;5088184;28;20249;-70
2023/07/18 11:11:52;;;;;;;9.98;6.53;;;;;;;34.04;nan;95246.16;5087333;28;20326;-70
2023/07/18 11:14:19;;;;;;;14.68;5.95;;;;;;;;;;5088736;28;20233;-69
2023/07/18 11:16:47;;;;;;;6.63;6.05;;;;;;;;;;5087159;28;20655;-68
2023/07/18 11:19:15;;;;;;;12.30;7.63;;;;;;;;;;5086721;28;20512;-69
2023/07/18 11:21:42;;;;;;;7.28;5.78;;;;;;;;;;5087644;28;20570;-70
2023/07/18 11:24:08;;;;;;;10.82;5.95;;;;;;;;;;5087958;28;20358;-70
2023/07/18 11:26:35;;;;;;;7.68;5.28;;;;;;;;;;5088346;28;20310;-69
2023/07/18 11:29:03;;;;;;;8.80;5.50;;;;;;;;;;5089423;28;20555;-70
2023/07/18 11:31:31;;;;;;;12.30;4.88;;;;;;;33.94;nan;95243.81;5089047;28;20193;-71
2023/07/18 11:34:00;;;;;;;5.45;4.80;;;;;;;;;;5089391;28;20233;-69
2023/07/18 11:36:31;;;;;;;4.45;4.05;;;;;;;;;;5089006;28;20667;-70
2023/07/18 11:39:00;;;;;;;5.00;4.70;;;;;;;;;;5088934;28;20320;-70
2023/07/18 11:41:34;;;;;;;11.95;5.80;;;;;;;;;;5088986;28;20208;-70
2023/07/18 11:44:01;;;;;;;7.82;5.05;;;;;;;;;;5088877;28;20233;-70
2023/07/18 11:46:34;;;;;;;5.65;5.18;;;;;;;;;;5089047;28;20229;-69
2023/07/18 11:49:03;;;;;;;5.85;5.35;;;;;;;33.89;nan;95226.97;5088420;28;20637;-69
2023/07/18 11:51:31;;;;;;;5.90;5.30;;;;;;;33.88;nan;95231.44;5088131;28;20302;-69
2023/07/18 11:53:57;;;;;;;5.53;5.03;;;;;;;;;;5088529;28;20250;-69
2023/07/18 11:56:23;;;;;;;8.93;6.40;;;;;;;;;;5089070;28;20225;-68
2023/07/18 11:58:50;;;;;;;6.00;5.03;;;;;;;;;;5088248;28;20237;-70
2023/07/18 12:01:17;;;;;;;6.13;5.07;;;;;;;33.67;nan;95229.56;5088721;28;20201;-68
2023/07/18 12:03:43;;;;;;;8.45;4.40;;;;;;;;;;5088736;28;20202;-70
2023/07/18 12:06:11;;;;;;;5.82;4.50;;;;;;;;;;5088702;28;20312;-69
2023/07/18 12:08:37;;;;;;;6.55;5.50;;;;;;;;;;5088249;28;20206;-69
2023/07/18 12:11:04;;;;;;;6.20;5.20;;;;;;;;;;5088602;28;20342;-69
2023/07/18 12:13:31;;;;;;;5.88;4.57;;;;;;;;;;5088024;28;20208;-70
2023/07/18 12:15:58;;;;;;;6.32;5.75;;;;;;;;;;5088813;28;20198;-69
2023/07/18 12:18:24;;;;;;;7.07;5.32;;;;;;;;;;5088547;28;20215;-69
2023/07/18 12:20:52;;;;;;;6.25;5.50;;;;;;;;;;5089432;28;20225;-70
2023/07/18 12:23:20;;;;;;;5.63;5.00;;;;;;;;;;5088510;28;20567;-68
2023/07/18 12:25:47;;;;;;;6.55;5.25;;;;;;;;;;5088423;28;20263;-70
2023/07/18 12:28:13;;;;;;;6.38;5.75;;;;;;;;;;5088817;28;20193;-69
2023/07/18 12:30:41;;;;;;;5.68;5.20;;;;;;;33.34;nan;95217.94;5087840;28;20286;-69
2023/07/18 12:33:08;;;;;;;5.50;5.10;;;;;;;;;;5087804;28;20289;-69
2023/07/18 12:35:34;;;;;;;5.88;5.22;;;;;;;;;;5086836;28;20244;-69
2023/07/18 12:38:01;;;;;;;6.90;4.78;;;;;;;;;;5087129;28;20229;-71
2023/07/18 12:40:30;;;;;;;6.20;5.43;;;;;;;;;;5087883;28;20258;-69
2023/07/18 12:42:57;;;;;;;8.23;6.05;;;;;;;;;;5087977;28;20240;-70
2023/07/18 12:45:24;;;;;;;5.35;4.93;;;;;;;;;;5087719;28;20253;-71
2023/07/18 12:47:50;;;;;;;5.15;4.85;;;;;;;;;;5087284;28;20288;-70
2023/07/18 12:50:17;;;;;;;6.45;6.05;;;;;;;;;;5087679;28;20197;-68
2023/07/18 12:52:44;;;;;;;6.38;5.45;;;;;;;;;;5087454;28;20225;-68
2023/07/18 12:55:10;;;;;;;5.38;4.97;;;;;;;;;;5086471;28;20221;-68
2023/07/18 12:57:38;;;;;;;4.93;4.63;;;;;;;;;;5086454;28;20198;-68
2023/07/18 13:00:07;;;;;;;5.00;4.72;;;;;;;33.23;nan;95231.53;5086633;28;20197;-69
2023/07/18 13:02:33;;;;;;;4.82;4.53;;;;;;;;;;5086549;28;20221;-69
2023/07/18 13:05:02;;;;;;;5.40;5.00;;;;;;;;;;5085895;28;20237;-69
2023/07/18 13:07:29;;;;;;;5.60;5.25;;;;;;;;;;5086370;28;20214;-69
2023/07/18 13:09:55;;;;;;;5.85;5.45;;;;;;;;;;5086548;28;20196;-69
2023/07/18 13:12:21;;;;;;;5.55;5.15;;;;;;;;;;5086019;28;20302;-69
2023/07/18 13:14:49;;;;;;;6.80;5.38;;;;;;;;;;5087059;28;20243;-69
2023/07/18 13:17:16;;;;;;;5.43;5.13;;;;;;;;;;5086435;28;20367;-68
2023/07/18 13:19:43;;;;;;;7.60;4.78;;;;;;;;;;5086693;28;20202;-69